Time,TemperatureF,DewpointF,PressureIn,WindDirection,WindDirectionDegrees,WindSpeedMPH,WindSpeedGustMPH,Humidity,HourlyPrecipIn,Conditions,Clouds,dailyrainin,SolarRadiationWatts/m^2,SoftwareType,DateUTC
2013-10-25 00:00:00,33.2,29.5,30.20,SW,226,0.0,0.0,86,0.00,,,0.00,0,Wunderground v.1.15,2013-10-25 07:00:00,
2013-10-25 05:20:00,27.2,24.4,30.30,SW,226,0.0,0.0,89,0.00,,,0.00,0,Wunderground v.1.15,2013-10-25 12:20:00,
2013-10-25 05:30:00,27.0,24.5,30.30,SW,226,0.0,0.0,90,0.00,,,0.00,0,Wunderground v.1.15,2013-10-25 12:30:00,
2013-10-25 05:35:00,27.0,24.5,30.30,SW,226,0.0,0.0,90,0.00,,,0.00,0,Wunderground v.1.15,2013-10-25 12:35:00,
2013-10-25 05:40:00,27.0,24.5,30.30,SW,226,0.0,0.0,90,0.00,,,0.00,0,Wunderground v.1.15,2013-10-25 12:40:00,
2013-10-25 05:50:00,27.0,24.5,30.30,SW,226,0.0,0.0,90,0.00,,,0.00,0,Wunderground v.1.15,2013-10-25 12:50:00,
2013-10-25 06:00:00,27.2,24.7,30.30,SW,226,0.0,0.0,90,0.00,,,0.00,0,Wunderground v.1.15,2013-10-25 13:00:00,
2013-10-25 06:05:00,27.2,24.7,30.32,SW,226,0.0,0.0,90,0.00,,,0.00,0,Wunderground v.1.15,2013-10-25 13:05:00,
2013-10-25 06:15:00,27.3,24.8,30.32,SW,226,0.0,0.0,90,0.00,,,0.00,0,Wunderground v.1.15,2013-10-25 13:15:00,
2013-10-25 06:25:00,27.2,24.4,30.32,SW,226,0.0,0.0,89,0.00,,,0.00,0,Wunderground v.1.15,2013-10-25 13:25:00,
2013-10-25 06:35:00,27.2,24.4,30.32,SW,226,0.0,0.0,89,0.00,,,0.00,0,Wunderground v.1.15,2013-10-25 13:35:00,
2013-10-25 06:40:00,27.2,24.4,30.32,SW,226,0.0,0.0,89,0.00,,,0.00,0,Wunderground v.1.15,2013-10-25 13:40:00,
2013-10-25 06:50:00,27.3,24.5,30.32,SW,226,0.0,0.0,89,0.00,,,0.00,0,Wunderground v.1.15,2013-10-25 13:50:00,
2013-10-25 06:55:00,27.3,24.2,30.32,SW,226,0.0,0.0,88,0.00,,,0.00,0,Wunderground v.1.15,2013-10-25 13:55:00,
2013-10-25 07:05:00,27.3,24.2,30.33,SW,226,0.0,0.0,88,0.00,,,0.00,0,Wunderground v.1.15,2013-10-25 14:05:00,
2013-10-25 07:15:00,27.5,24.4,30.33,SW,226,0.0,0.0,88,0.00,,,0.00,0,Wunderground v.1.15,2013-10-25 14:15:00,
2013-10-25 07:20:00,27.5,24.4,30.33,SW,226,0.0,0.0,88,0.00,,,0.00,0,Wunderground v.1.15,2013-10-25 14:20:00,
2013-10-25 07:30:00,27.3,23.9,30.33,SW,226,0.0,0.0,87,0.00,,,0.00,0,Wunderground v.1.15,2013-10-25 14:30:00,
2013-10-25 07:40:00,27.3,23.9,30.34,SW,226,0.0,0.0,87,0.00,,,0.00,0,Wunderground v.1.15,2013-10-25 14:40:00,
2013-10-25 07:50:00,27.5,24.1,30.34,SW,226,0.0,0.0,87,0.00,,,0.00,5,Wunderground v.1.15,2013-10-25 14:50:00,
2013-10-25 08:00:00,27.3,23.7,30.34,SW,226,0.0,0.0,86,0.00,,,0.00,9,Wunderground v.1.15,2013-10-25 15:00:00,
2013-10-25 08:10:00,27.3,23.9,30.35,SW,226,0.0,0.0,87,0.00,,,0.00,11,Wunderground v.1.15,2013-10-25 15:10:00,
2013-10-25 08:20:00,27.6,24.2,30.35,SW,226,0.0,0.0,87,0.00,,,0.00,21,Wunderground v.1.15,2013-10-25 15:20:00,
2013-10-25 08:30:00,28.1,25.0,30.36,SW,226,0.0,0.0,88,0.00,,,0.00,25,Wunderground v.1.15,2013-10-25 15:30:00,
2013-10-25 08:40:00,30.1,27.5,30.35,SW,226,0.0,0.0,90,0.00,,,0.00,141,Wunderground v.1.15,2013-10-25 15:40:00,
2013-10-25 08:50:00,32.8,30.2,30.34,SW,226,0.0,0.0,90,0.00,,,0.00,130,Wunderground v.1.15,2013-10-25 15:50:00,
2013-10-25 09:00:00,33.8,30.3,30.35,SW,226,0.0,0.0,87,0.00,,,0.00,148,Wunderground v.1.15,2013-10-25 16:00:00,
2013-10-25 09:05:00,34.4,31.2,30.34,SW,226,0.0,0.0,88,0.00,,,0.00,160,Wunderground v.1.15,2013-10-25 16:05:00,
2013-10-25 09:15:00,36.2,32.4,30.34,SW,226,0.0,0.0,86,0.00,,,0.00,162,Wunderground v.1.15,2013-10-25 16:15:00,
2013-10-25 09:20:00,36.8,32.7,30.34,SW,226,0.0,0.0,85,0.00,,,0.00,202,Wunderground v.1.15,2013-10-25 16:20:00,
2013-10-25 09:30:00,38.2,33.5,30.34,SW,226,0.0,0.0,83,0.00,,,0.00,202,Wunderground v.1.15,2013-10-25 16:30:00,
2013-10-25 09:40:00,40.8,35.4,30.33,SW,226,0.0,0.0,81,0.00,,,0.00,246,Wunderground v.1.15,2013-10-25 16:40:00,
2013-10-25 09:50:00,41.3,35.9,30.33,SW,226,0.0,0.0,81,0.00,,,0.00,271,Wunderground v.1.15,2013-10-25 16:50:00,
2013-10-25 10:00:00,42.9,36.2,30.32,SW,226,0.0,0.0,77,0.00,,,0.00,297,Wunderground v.1.15,2013-10-25 17:00:00,
2013-10-25 10:10:00,44.1,36.3,30.32,SW,226,0.0,0.0,74,0.00,,,0.00,323,Wunderground v.1.15,2013-10-25 17:10:00,
2013-10-25 10:20:00,44.9,35.7,30.32,SW,226,0.0,0.0,70,0.00,,,0.00,341,Wunderground v.1.15,2013-10-25 17:20:00,
2013-10-25 10:25:00,45.7,35.4,30.32,SW,220,0.0,1.0,67,0.00,,,0.00,355,Wunderground v.1.15,2013-10-25 17:25:00,
2013-10-25 10:35:00,47.0,33.8,30.32,SSW,206,0.0,0.0,60,0.00,,,0.00,373,Wunderground v.1.15,2013-10-25 17:35:00,
2013-10-25 10:45:00,48.2,33.2,30.31,SSW,206,0.0,1.0,56,0.00,,,0.00,388,Wunderground v.1.15,2013-10-25 17:45:00,
2013-10-25 10:55:00,49.4,33.4,30.31,SSE,167,1.0,2.0,54,0.00,,,0.00,422,Wunderground v.1.15,2013-10-25 17:55:00,
2013-10-25 11:05:00,49.9,33.4,30.31,SSE,163,1.0,2.0,53,0.00,,,0.00,366,Wunderground v.1.15,2013-10-25 18:05:00,
2013-10-25 11:15:00,50.1,32.2,30.31,SSE,163,1.0,2.0,50,0.00,,,0.00,348,Wunderground v.1.15,2013-10-25 18:15:00,
2013-10-25 11:25:00,51.0,32.5,30.31,SSE,152,1.0,2.0,49,0.00,,,0.00,413,Wunderground v.1.15,2013-10-25 18:25:00,
2013-10-25 11:35:00,51.9,33.8,30.31,SE,144,1.0,3.0,50,0.00,,,0.00,424,Wunderground v.1.15,2013-10-25 18:35:00,
2013-10-25 11:45:00,52.8,34.2,30.30,SE,135,1.0,2.0,49,0.00,,,0.00,396,Wunderground v.1.15,2013-10-25 18:45:00,
2013-10-25 11:55:00,52.3,34.2,30.31,SE,142,2.0,2.0,50,0.00,,,0.00,424,Wunderground v.1.15,2013-10-25 18:55:00,
2013-10-25 12:05:00,53.3,33.6,30.31,SE,140,1.0,2.0,47,0.00,,,0.00,492,Wunderground v.1.15,2013-10-25 19:05:00,
2013-10-25 12:15:00,53.9,33.0,30.30,South,179,2.0,2.0,45,0.00,,,0.00,445,Wunderground v.1.15,2013-10-25 19:15:00,
2013-10-25 12:25:00,55.1,33.0,30.30,ESE,112,1.0,4.0,43,0.00,,,0.00,524,Wunderground v.1.15,2013-10-25 19:25:00,
2013-10-25 12:35:00,55.6,33.4,30.29,South,175,0.0,1.0,43,0.00,,,0.00,485,Wunderground v.1.15,2013-10-25 19:35:00,
2013-10-25 12:45:00,56.3,32.9,30.29,SSE,165,1.0,2.0,41,0.00,,,0.00,473,Wunderground v.1.15,2013-10-25 19:45:00,
2013-10-25 12:55:00,56.6,32.5,30.28,SW,229,1.0,1.0,40,0.00,,,0.00,512,Wunderground v.1.15,2013-10-25 19:55:00,
2013-10-25 13:05:00,56.9,33.4,30.29,South,184,2.0,2.0,41,0.00,,,0.00,489,Wunderground v.1.15,2013-10-25 20:05:00,
2013-10-25 13:15:00,57.2,33.1,30.28,South,189,2.0,2.0,40,0.00,,,0.00,446,Wunderground v.1.15,2013-10-25 20:15:00,
2013-10-25 13:25:00,57.6,35.8,30.28,South,171,1.0,3.0,44,0.00,,,0.00,429,Wunderground v.1.15,2013-10-25 20:25:00,
2013-10-25 13:30:00,58.1,34.5,30.27,SSE,167,1.0,3.0,41,0.00,,,0.00,445,Wunderground v.1.15,2013-10-25 20:30:00,
2013-10-25 13:40:00,58.9,37.0,30.27,SSE,160,1.0,1.0,44,0.00,,,0.00,452,Wunderground v.1.15,2013-10-25 20:40:00,
2013-10-25 13:50:00,58.7,36.2,30.27,SSE,160,1.0,1.0,43,0.00,,,0.00,424,Wunderground v.1.15,2013-10-25 20:50:00,
2013-10-25 14:00:00,59.5,39.2,30.27,SSE,160,0.0,1.0,47,0.00,,,0.00,446,Wunderground v.1.15,2013-10-25 21:00:00,
2013-10-25 14:10:00,59.8,37.8,30.27,SSE,160,0.0,2.0,44,0.00,,,0.00,459,Wunderground v.1.15,2013-10-25 21:10:00,
2013-10-25 14:20:00,60.1,39.2,30.26,SSW,210,1.0,1.0,46,0.00,,,0.00,420,Wunderground v.1.15,2013-10-25 21:20:00,
2013-10-25 14:30:00,59.0,40.4,30.26,SSW,210,1.0,2.0,50,0.00,,,0.00,388,Wunderground v.1.15,2013-10-25 21:30:00,
2013-10-25 14:40:00,58.4,39.8,30.27,SSW,210,1.0,2.0,50,0.00,,,0.00,353,Wunderground v.1.15,2013-10-25 21:40:00,
2013-10-25 14:49:00,58.0,41.0,30.26,SSW,210,1.0,1.0,53,0.00,,,0.00,301,Wunderground v.1.15,2013-10-25 21:49:00,
2013-10-25 14:55:00,57.6,40.6,30.26,SSW,210,1.0,1.0,53,0.00,,,0.00,329,Wunderground v.1.15,2013-10-25 21:55:00,
2013-10-25 15:00:00,57.6,39.6,30.26,SW,220,1.0,1.0,51,0.00,,,0.00,381,Wunderground v.1.15,2013-10-25 22:00:00,
2013-10-25 15:10:00,57.2,41.2,30.27,SW,220,1.0,1.0,55,0.00,,,0.00,353,Wunderground v.1.15,2013-10-25 22:10:00,
2013-10-25 15:20:00,55.6,41.0,30.27,SW,220,1.0,1.0,58,0.00,,,0.00,44,Wunderground v.1.15,2013-10-25 22:20:00,
2013-10-25 15:30:00,53.1,40.8,30.28,SW,220,0.0,0.0,63,0.00,,,0.00,35,Wunderground v.1.15,2013-10-25 22:30:00,
2013-10-25 15:35:00,52.3,40.9,30.28,SW,220,0.0,0.0,65,0.00,,,0.00,32,Wunderground v.1.15,2013-10-25 22:35:00,
2013-10-25 15:40:00,51.7,40.7,30.28,SW,220,0.0,0.0,66,0.00,,,0.00,30,Wunderground v.1.15,2013-10-25 22:40:00,
2013-10-25 15:50:00,51.1,40.5,30.28,SW,220,0.0,0.0,67,0.00,,,0.00,26,Wunderground v.1.15,2013-10-25 22:50:00,
2013-10-25 15:59:00,50.8,40.6,30.28,SW,220,0.0,0.0,68,0.00,,,0.00,25,Wunderground v.1.15,2013-10-25 22:59:00,
2013-10-25 16:05:00,50.7,40.5,30.28,SW,220,0.0,0.0,68,0.00,,,0.00,25,Wunderground v.1.15,2013-10-25 23:05:00,
2013-10-25 16:15:00,50.5,40.7,30.28,SW,220,0.0,0.0,69,0.00,,,0.00,21,Wunderground v.1.15,2013-10-25 23:15:00,
2013-10-25 16:20:00,50.4,40.6,30.28,SW,220,0.0,0.0,69,0.00,,,0.00,19,Wunderground v.1.15,2013-10-25 23:20:00,
2013-10-25 16:30:00,50.1,41.1,30.28,SW,220,0.0,0.0,71,0.00,,,0.00,21,Wunderground v.1.15,2013-10-25 23:30:00,
2013-10-25 16:40:00,49.8,40.8,30.29,SW,220,0.0,0.0,71,0.00,,,0.00,19,Wunderground v.1.15,2013-10-25 23:40:00,
2013-10-25 16:45:00,49.6,40.6,30.29,SW,220,0.0,0.0,71,0.00,,,0.00,19,Wunderground v.1.15,2013-10-25 23:45:00,
2013-10-25 16:50:00,49.5,40.5,30.29,SW,220,0.0,0.0,71,0.00,,,0.00,19,Wunderground v.1.15,2013-10-25 23:50:00,
2013-10-25 17:00:00,49.4,40.7,30.30,SW,220,0.0,0.0,72,0.00,,,0.00,18,Wunderground v.1.15,2013-10-26 00:00:00,
2013-10-25 17:05:00,49.2,40.6,30.29,SW,220,0.0,0.0,72,0.00,,,0.00,18,Wunderground v.1.15,2013-10-26 00:05:00,
2013-10-25 17:10:00,48.9,40.3,30.30,SW,220,0.0,0.0,72,0.00,,,0.00,16,Wunderground v.1.15,2013-10-26 00:10:00,
2013-10-25 17:20:00,48.5,40.2,30.30,SW,220,0.0,0.0,73,0.00,,,0.00,14,Wunderground v.1.15,2013-10-26 00:20:00,
2013-10-25 17:25:00,48.0,40.1,30.30,SW,220,0.0,0.0,74,0.00,,,0.00,12,Wunderground v.1.15,2013-10-26 00:25:00,
2013-10-25 17:35:00,47.3,39.8,30.31,SW,220,0.0,0.0,75,0.00,,,0.00,9,Wunderground v.1.15,2013-10-26 00:35:00,
2013-10-25 17:45:00,46.7,39.9,30.31,SW,220,0.0,0.0,77,0.00,,,0.00,5,Wunderground v.1.15,2013-10-26 00:45:00,
2013-10-25 17:55:00,45.7,39.2,30.32,SW,220,0.0,0.0,78,0.00,,,0.00,0,Wunderground v.1.15,2013-10-26 00:55:00,
2013-10-25 18:05:00,45.2,39.4,30.32,SW,220,0.0,0.0,80,0.00,,,0.00,0,Wunderground v.1.15,2013-10-26 01:05:00,
2013-10-25 18:15:00,44.8,39.0,30.32,SW,220,0.0,0.0,80,0.00,,,0.00,0,Wunderground v.1.15,2013-10-26 01:15:00,
2013-10-25 18:25:00,44.3,38.8,30.33,SW,220,0.0,0.0,81,0.00,,,0.00,0,Wunderground v.1.15,2013-10-26 01:25:00,
2013-10-25 18:30:00,44.2,38.7,30.34,SW,220,0.0,0.0,81,0.00,,,0.00,0,Wunderground v.1.15,2013-10-26 01:30:00,
2013-10-25 18:40:00,43.6,38.2,30.34,SW,220,0.0,0.0,81,0.00,,,0.00,0,Wunderground v.1.15,2013-10-26 01:40:00,
2013-10-25 18:45:00,43.3,38.2,30.34,SW,220,0.0,0.0,82,0.00,,,0.00,0,Wunderground v.1.15,2013-10-26 01:45:00,
2013-10-25 18:55:00,42.8,37.7,30.35,SW,220,0.0,0.0,82,0.00,,,0.00,0,Wunderground v.1.15,2013-10-26 01:55:00,
2013-10-25 19:05:00,42.1,36.7,30.35,SW,220,0.0,0.0,81,0.00,,,0.00,0,Wunderground v.1.15,2013-10-26 02:05:00,
2013-10-25 19:15:00,41.6,36.8,30.35,SW,220,0.0,0.0,83,0.00,,,0.00,0,Wunderground v.1.15,2013-10-26 02:15:00,
2013-10-25 19:25:00,41.3,36.8,30.36,SW,220,0.0,0.0,84,0.00,,,0.00,0,Wunderground v.1.15,2013-10-26 02:25:00,
2013-10-25 19:35:00,40.9,36.1,30.36,SW,220,0.0,0.0,83,0.00,,,0.00,0,Wunderground v.1.15,2013-10-26 02:35:00,
2013-10-25 19:40:00,40.5,36.0,30.36,SW,220,0.0,0.0,84,0.00,,,0.00,0,Wunderground v.1.15,2013-10-26 02:40:00,
2013-10-25 19:50:00,40.1,35.7,30.37,SW,220,0.0,0.0,84,0.00,,,0.00,0,Wunderground v.1.15,2013-10-26 02:50:00,
2013-10-25 20:00:00,39.6,35.5,30.37,SW,220,0.0,0.0,85,0.00,,,0.00,0,Wunderground v.1.15,2013-10-26 03:00:00,
2013-10-25 20:10:00,39.5,35.4,30.36,SW,220,0.0,0.0,85,0.00,,,0.00,0,Wunderground v.1.15,2013-10-26 03:10:00,
2013-10-25 20:15:00,39.2,35.1,30.36,SW,220,0.0,0.0,85,0.00,,,0.00,0,Wunderground v.1.15,2013-10-26 03:15:00,
2013-10-25 20:25:00,38.8,35.0,30.36,SW,220,0.0,0.0,86,0.00,,,0.00,0,Wunderground v.1.15,2013-10-26 03:25:00,
2013-10-25 20:35:00,38.5,34.4,30.36,SW,220,0.0,0.0,85,0.00,,,0.00,0,Wunderground v.1.15,2013-10-26 03:35:00,
2013-10-25 20:40:00,38.2,34.1,30.36,SW,220,0.0,0.0,85,0.00,,,0.00,0,Wunderground v.1.15,2013-10-26 03:40:00,
2013-10-25 20:50:00,37.8,33.7,30.37,SW,220,0.0,0.0,85,0.00,,,0.00,0,Wunderground v.1.15,2013-10-26 03:50:00,
2013-10-25 21:00:00,37.6,33.8,30.37,SW,220,0.0,0.0,86,0.00,,,0.00,0,Wunderground v.1.15,2013-10-26 04:00:00,
2013-10-25 21:04:00,37.5,33.4,30.35,SW,220,0.0,0.0,85,0.00,,,0.00,0,Wunderground v.1.15,2013-10-26 04:04:00,
2013-10-25 21:10:00,37.2,33.1,30.35,SW,220,0.0,0.0,85,0.00,,,0.00,0,Wunderground v.1.15,2013-10-26 04:10:00,
2013-10-25 21:15:00,37.2,33.4,30.35,SW,220,0.0,0.0,86,0.00,,,0.00,0,Wunderground v.1.15,2013-10-26 04:15:00,
2013-10-25 21:25:00,37.0,33.2,30.36,SW,220,0.0,0.0,86,0.00,,,0.00,0,Wunderground v.1.15,2013-10-26 04:25:00,
2013-10-25 21:30:00,36.8,33.0,30.36,SW,220,0.0,0.0,86,0.00,,,0.00,0,Wunderground v.1.15,2013-10-26 04:30:00,
2013-10-25 21:35:00,36.6,32.8,30.36,SW,220,0.0,0.0,86,0.00,,,0.00,0,Wunderground v.1.15,2013-10-26 04:35:00,
2013-10-25 21:44:00,36.6,32.8,30.36,SW,220,0.0,0.0,86,0.00,,,0.00,0,Wunderground v.1.15,2013-10-26 04:44:00,
2013-10-25 21:50:00,36.3,32.5,30.36,SW,220,0.0,0.0,86,0.00,,,0.00,0,Wunderground v.1.15,2013-10-26 04:50:00,
2013-10-25 22:00:00,36.0,32.5,30.37,SW,220,0.0,0.0,87,0.00,,,0.00,0,Wunderground v.1.15,2013-10-26 05:00:00,
2013-10-25 22:10:00,36.2,32.7,30.35,SW,220,0.0,0.0,87,0.00,,,0.00,0,Wunderground v.1.15,2013-10-26 05:10:00,
2013-10-25 22:20:00,35.8,32.0,30.35,SW,220,0.0,0.0,86,0.00,,,0.00,0,Wunderground v.1.15,2013-10-26 05:20:00,
2013-10-25 22:30:00,35.6,32.1,30.35,SW,220,0.0,0.0,87,0.00,,,0.00,0,Wunderground v.1.15,2013-10-26 05:30:00,
2013-10-25 22:40:00,35.2,31.4,30.35,SW,220,0.0,0.0,86,0.00,,,0.00,0,Wunderground v.1.15,2013-10-26 05:40:00,
2013-10-25 22:50:00,34.7,30.9,30.36,SW,220,0.0,0.0,86,0.00,,,0.00,0,Wunderground v.1.15,2013-10-26 05:50:00,
2013-10-25 23:00:00,34.6,31.1,30.36,SW,220,0.0,0.0,87,0.00,,,0.00,0,Wunderground v.1.15,2013-10-26 06:00:00,
2013-10-25 23:10:00,34.4,30.9,30.35,SW,220,0.0,0.0,87,0.00,,,0.00,0,Wunderground v.1.15,2013-10-26 06:10:00,
2013-10-25 23:20:00,34.3,30.8,30.35,SW,220,0.0,0.0,87,0.00,,,0.00,0,Wunderground v.1.15,2013-10-26 06:20:00,
2013-10-25 23:25:00,34.3,30.8,30.36,SW,220,0.0,0.0,87,0.00,,,0.00,0,Wunderground v.1.15,2013-10-26 06:25:00,
2013-10-25 23:35:00,34.0,30.5,30.36,SW,220,0.0,0.0,87,0.00,,,0.00,0,Wunderground v.1.15,2013-10-26 06:35:00,
2013-10-25 23:45:00,33.8,30.3,30.36,SW,220,0.0,0.0,87,0.00,,,0.00,0,Wunderground v.1.15,2013-10-26 06:45:00,
2013-10-25 23:55:00,33.8,30.6,30.36,SW,220,0.0,0.0,88,0.00,,,0.00,0,Wunderground v.1.15,2013-10-26 06:55:00,